Time;durP1;ratioP1;P1;durP2;ratioP2;P2;SDS_P1;SDS_P2;PMS_P1;PMS_P2;Temp;Humidity;BMP_temperature;BMP_pressure;BME280_temperature;BME280_humidity;BME280_pressure;Samples;Min_cycle;Max_cycle;Signal;HPM_P1;HPM_P2
2021/05/10 00:01:31;;;;;;;1.93;1.80;;;23.10;40.90;;;;;;4992640;28;20680;-51
2021/05/10 00:03:58;;;;;;;2.77;2.03;;;23.10;41.20;;;;;;4993264;28;20663;-51
2021/05/10 00:06:25;;;;;;;4.37;2.70;;;23.10;41.40;;;;;;4993471;28;20656;-51
2021/05/10 00:08:52;;;;;;;5.00;2.60;;;23.00;41.70;;;;;;4992744;28;20613;-53
2021/05/10 00:11:18;;;;;;;4.40;2.07;;;22.90;42.10;;;;;;4992901;28;20692;-52
2021/05/10 00:13:46;;;;;;;2.93;2.50;;;22.80;42.40;;;;;;4992862;28;20668;-52
2021/05/10 00:16:14;;;;;;;2.70;2.20;;;22.70;42.90;;;;;;4992922;28;20629;-51
2021/05/10 00:18:41;;;;;;;2.80;2.60;;;22.50;43.30;;;;;;4992580;28;20657;-50
2021/05/10 00:21:07;;;;;;;3.83;2.27;;;22.40;43.60;;;;;;4993003;28;20657;-50
2021/05/10 00:23:34;;;;;;;3.43;2.30;;;22.30;43.90;;;;;;4992865;28;20657;-51
2021/05/10 00:26:01;;;;;;;4.87;2.40;;;22.20;44.40;;;;;;4993036;28;20664;-52
2021/05/10 00:28:28;;;;;;;3.10;2.37;;;22.30;44.70;;;;;;4992441;28;20702;-53
2021/05/10 00:30:54;;;;;;;3.60;2.80;;;22.20;44.80;;;;;;4992756;28;20675;-51
2021/05/10 00:33:22;;;;;;;2.77;2.57;;;22.20;44.50;;;;;;4992426;28;21027;-51
2021/05/10 00:35:49;;;;;;;3.83;2.13;;;22.00;44.40;;;;;;4992555;28;20672;-51
2021/05/10 00:38:15;;;;;;;8.73;3.20;;;21.90;45.30;;;;;;4992595;28;20668;-51
2021/05/10 00:40:42;;;;;;;2.50;2.40;;;21.80;45.50;;;;;;4992678;28;21432;-51
2021/05/10 00:43:09;;;;;;;3.63;2.70;;;21.90;45.80;;;;;;4992939;28;20715;-52
2021/05/10 00:45:35;;;;;;;3.40;2.20;;;21.90;46.10;;;;;;4992461;28;21185;-51
2021/05/10 00:48:03;;;;;;;2.57;2.37;;;21.90;46.20;;;;;;4992825;28;20656;-51
2021/05/10 00:50:31;;;;;;;3.20;2.90;;;21.90;46.30;;;;;;4992700;28;21022;-51
2021/05/10 00:52:57;;;;;;;2.67;2.40;;;21.90;46.60;;;;;;4992251;28;20653;-51
2021/05/10 00:55:24;;;;;;;3.50;2.60;;;21.90;46.50;;;;;;4990553;28;21221;-51
2021/05/10 00:57:52;;;;;;;3.60;2.40;;;21.90;46.30;;;;;;4992469;28;20661;-51
2021/05/10 01:00:20;;;;;;;5.80;2.50;;;21.90;46.40;;;;;;5002224;28;21015;-51
2021/05/10 01:02:46;;;;;;;2.10;2.00;;;21.90;46.20;;;;;;5000581;28;20657;-51
2021/05/10 01:05:14;;;;;;;2.90;2.70;;;21.90;45.90;;;;;;4992403;28;20728;-52
2021/05/10 01:07:42;;;;;;;2.50;2.30;;;21.90;46.00;;;;;;4992066;28;20673;-51
2021/05/10 01:10:10;;;;;;;2.60;1.93;;;21.80;45.50;;;;;;4991640;28;21189;-51
2021/05/10 01:12:37;;;;;;;4.10;3.13;;;21.70;45.20;;;;;;4996528;28;20699;-51
2021/05/10 01:15:06;;;;;;;4.20;2.30;;;21.60;45.40;;;;;;4998839;28;21177;-51
2021/05/10 01:17:33;;;;;;;2.17;2.07;;;21.50;45.40;;;;;;4998428;28;20664;-51
2021/05/10 01:19:59;;;;;;;5.20;2.00;;;21.50;45.40;;;;;;4998528;28;20688;-52
2021/05/10 01:22:40;;;;;;;2.50;2.23;;;21.40;45.50;;;;;;4998543;28;21080;-52
2021/05/10 01:25:09;;;;;;;2.47;2.27;;;21.40;45.40;;;;;;4998380;28;21034;-53
2021/05/10 01:27:35;;;;;;;3.03;2.73;;;21.30;45.50;;;;;;4998382;28;21374;-53
2021/05/10 01:30:04;;;;;;;2.00;1.90;;;21.30;45.50;;;;;;4997825;28;20656;-53
2021/05/10 01:32:30;;;;;;;3.87;1.97;;;21.30;45.60;;;;;;4998993;28;20718;-52
2021/05/10 01:34:57;;;;;;;5.37;1.90;;;21.40;45.80;;;;;;4998911;28;20660;-53
2021/05/10 01:37:24;;;;;;;8.83;3.57;;;21.40;45.60;;;;;;4998650;28;20676;-52
2021/05/10 01:39:51;;;;;;;3.33;3.03;;;21.40;45.50;;;;;;4996771;28;21299;-52
2021/05/10 01:42:18;;;;;;;4.70;2.37;;;21.40;45.20;;;;;;4998191;28;20691;-53
2021/05/10 01:44:45;;;;;;;7.80;2.37;;;21.40;45.40;;;;;;4998403;28;20661;-53
2021/05/10 01:47:12;;;;;;;2.27;1.73;;;21.40;46.30;;;;;;4998093;28;20625;-53
2021/05/10 01:49:38;;;;;;;3.20;1.93;;;21.40;45.80;;;;;;4998636;28;20672;-52
2021/05/10 01:52:05;;;;;;;2.60;2.20;;;21.50;45.30;;;;;;4998338;28;20688;-53
2021/05/10 01:54:32;;;;;;;2.60;2.10;;;21.50;45.20;;;;;;4998363;28;20663;-53
2021/05/10 01:56:59;;;;;;;2.13;1.90;;;21.50;45.30;;;;;;4998236;28;20655;-53
2021/05/10 01:59:26;;;;;;;2.67;2.23;;;21.50;45.30;;;;;;4998051;28;20697;-53
2021/05/10 02:01:53;;;;;;;3.33;2.03;;;21.50;45.10;;;;;;4998273;28;21237;-53
2021/05/10 02:04:19;;;;;;;2.30;1.73;;;21.50;45.40;;;;;;4998511;28;20668;-53
2021/05/10 02:06:46;;;;;;;2.17;1.97;;;21.50;45.40;;;;;;4998201;28;20660;-53
2021/05/10 02:09:13;;;;;;;2.30;2.10;;;21.50;45.40;;;;;;4997924;28;20668;-53
2021/05/10 02:11:40;;;;;;;5.40;2.27;;;21.40;45.20;;;;;;4998157;28;21143;-52
2021/05/10 02:14:07;;;;;;;2.10;1.90;;;21.30;45.10;;;;;;4997843;28;20644;-52
2021/05/10 02:16:34;;;;;;;4.10;1.93;;;21.30;45.00;;;;;;4998438;28;21227;-52
2021/05/10 02:19:01;;;;;;;3.10;2.50;;;21.30;45.10;;;;;;4998279;28;20662;-53
2021/05/10 02:21:30;;;;;;;1.90;1.70;;;21.30;44.80;;;;;;4997765;28;20684;-53
2021/05/10 02:23:57;;;;;;;5.90;2.33;;;21.20;44.40;;;;;;4995874;28;20663;-52
2021/05/10 02:26:24;;;;;;;2.70;2.20;;;21.10;44.50;;;;;;4995310;28;21185;-52
2021/05/10 02:28:50;;;;;;;5.70;2.30;;;21.10;44.90;;;;;;4995334;28;20663;-52
2021/05/10 02:31:18;;;;;;;2.43;2.10;;;21.10;44.90;;;;;;4994266;28;20662;-52
2021/05/10 02:33:45;;;;;;;2.37;2.10;;;21.00;45.30;;;;;;4994903;28;20652;-52
2021/05/10 02:36:11;;;;;;;2.07;1.87;;;20.80;45.50;;;;;;4996330;28;20639;-53
2021/05/10 02:38:38;;;;;;;4.73;2.10;;;20.80;45.50;;;;;;4995036;28;20660;-53
2021/05/10 02:41:05;;;;;;;2.43;2.20;;;20.60;45.10;;;;;;4993388;28;20692;-53
2021/05/10 02:43:32;;;;;;;4.13;2.17;;;20.60;45.20;;;;;;4995016;28;20668;-53
2021/05/10 02:45:59;;;;;;;2.30;1.60;;;20.50;45.40;;;;;;4994598;28;20624;-53
2021/05/10 02:48:27;;;;;;;4.90;2.23;;;20.50;45.60;;;;;;4994537;28;20625;-53
2021/05/10 02:50:53;;;;;;;2.50;2.07;;;20.40;45.60;;;;;;4995147;28;21255;-52
2021/05/10 02:53:21;;;;;;;2.17;1.80;;;20.40;45.70;;;;;;4995287;28;21010;-53
2021/05/10 02:55:47;;;;;;;6.10;2.50;;;20.40;45.80;;;;;;4995266;28;20972;-51
2021/05/10 02:58:14;;;;;;;2.57;1.97;;;20.50;45.80;;;;;;4994319;28;20616;-51
2021/05/10 03:00:41;;;;;;;4.33;2.53;;;20.40;45.70;;;;;;4993729;28;21048;-51
2021/05/10 03:03:07;;;;;;;5.30;2.27;;;20.50;45.70;;;;;;4993721;28;21014;-51
2021/05/10 03:05:35;;;;;;;4.70;2.13;;;20.60;45.70;;;;;;4994556;28;21133;-52
2021/05/10 03:08:02;;;;;;;2.53;2.20;;;20.60;45.50;;;;;;4994415;28;20656;-52
2021/05/10 03:10:29;;;;;;;2.43;1.70;;;20.70;45.50;;;;;;4994129;28;20625;-53
2021/05/10 03:12:56;;;;;;;3.60;2.20;;;20.80;45.50;;;;;;4994351;28;20715;-52
2021/05/10 03:15:23;;;;;;;3.13;2.30;;;20.80;45.30;;;;;;4994541;28;20668;-52
2021/05/10 03:17:50;;;;;;;4.50;2.40;;;20.80;45.30;;;;;;5001400;28;20632;-52
2021/05/10 03:20:18;;;;;;;4.13;2.03;;;20.80;45.20;;;;;;5003690;28;20657;-53
2021/05/10 03:22:46;;;;;;;1.83;1.67;;;20.90;45.10;;;;;;5001116;28;20745;-51
2021/05/10 03:25:13;;;;;;;1.77;1.67;;;20.90;44.80;;;;;;5005121;28;20698;-51
2021/05/10 03:27:40;;;;;;;6.97;2.53;;;20.90;44.60;;;;;;5004672;28;20621;-51
2021/05/10 03:30:09;;;;;;;2.77;1.97;;;21.00;44.60;;;;;;5004501;28;20697;-52
2021/05/10 03:32:36;;;;;;;2.97;2.10;;;21.10;44.30;;;;;;5007112;28;20655;-51
2021/05/10 03:35:03;;;;;;;2.87;2.40;;;21.10;43.90;;;;;;5004818;28;20625;-53
2021/05/10 03:37:30;;;;;;;2.50;1.80;;;21.20;43.70;;;;;;4993495;28;20628;-53
2021/05/10 03:39:58;;;;;;;2.10;1.90;;;21.30;43.60;;;;;;4993472;28;20672;-53
2021/05/10 03:42:24;;;;;;;4.57;2.17;;;21.40;43.60;;;;;;4993815;28;20684;-53
2021/05/10 03:44:52;;;;;;;4.17;2.17;;;21.40;43.30;;;;;;4993080;28;20636;-53
2021/05/10 03:47:19;;;;;;;2.60;2.23;;;21.50;43.10;;;;;;4993046;28;20683;-53
2021/05/10 03:49:46;;;;;;;2.07;1.97;;;21.50;43.00;;;;;;4993415;28;20632;-53
2021/05/10 03:52:13;;;;;;;2.20;1.90;;;21.60;43.10;;;;;;4992839;28;20649;-53
2021/05/10 03:54:40;;;;;;;6.17;2.10;;;21.60;43.10;;;;;;4993460;28;20632;-53
2021/05/10 03:57:07;;;;;;;2.40;1.70;;;21.70;43.30;;;;;;4993179;28;20629;-53
2021/05/10 03:59:34;;;;;;;4.13;2.20;;;21.70;43.40;;;;;;4992981;28;20632;-52
2021/05/10 04:02:02;;;;;;;3.77;2.40;;;21.70;43.40;;;;;;4992650;28;21061;-52
2021/05/10 04:04:36;;;;;;;4.10;2.53;;;21.70;43.40;;;;;;4993421;28;20683;-53
2021/05/10 04:07:25;;;;;;;2.30;2.10;;;21.70;43.60;;;;;;4993332;28;20635;-53
2021/05/10 04:15:18;;;;;;;2.67;2.17;;;21.70;44.60;;;;;;4993180;28;21263;-53
2021/05/10 04:17:45;;;;;;;3.73;2.07;;;21.70;44.50;;;;;;4992502;28;20625;-53
2021/05/10 04:20:13;;;;;;;4.00;2.23;;;21.60;44.20;;;;;;4992776;28;21245;-51
2021/05/10 04:22:39;;;;;;;3.57;2.17;;;21.50;44.30;;;;;;4992916;28;20657;-51
2021/05/10 04:25:07;;;;;;;2.13;1.97;;;21.50;44.50;;;;;;4993120;28;20633;-52
2021/05/10 04:27:35;;;;;;;4.70;1.93;;;21.40;44.80;;;;;;4992682;28;21213;-53
2021/05/10 04:30:02;;;;;;;2.10;1.83;;;21.40;44.90;;;;;;4992867;28;20636;-53
2021/05/10 04:32:29;;;;;;;2.17;1.87;;;21.50;44.60;;;;;;4992056;28;20672;-51
2021/05/10 04:34:55;;;;;;;2.90;2.47;;;21.60;44.60;;;;;;4992381;28;20651;-51
2021/05/10 04:37:22;;;;;;;9.07;4.00;;;21.30;46.80;;;;;;4992408;28;20687;-51
2021/05/10 04:39:49;;;;;;;6.23;3.30;;;21.00;48.20;;;;;;4997291;28;20641;-52
2021/05/10 04:42:16;;;;;;;3.17;2.83;;;20.70;49.20;;;;;;4994598;28;21288;-52
2021/05/10 04:44:44;;;;;;;5.00;3.70;;;20.40;49.60;;;;;;4992493;28;20628;-51
2021/05/10 04:47:10;;;;;;;3.77;3.20;;;20.30;50.20;;;;;;4992277;28;20648;-52
2021/05/10 04:49:37;;;;;;;3.83;3.43;;;20.30;50.40;;;;;;4992067;28;20655;-53
2021/05/10 04:52:04;;;;;;;6.87;3.80;;;20.40;50.70;;;;;;4992322;28;20683;-53
2021/05/10 04:54:31;;;;;;;5.30;3.67;;;20.40;50.60;;;;;;4992733;28;20632;-52
2021/05/10 04:56:58;;;;;;;3.73;3.40;;;20.50;50.60;;;;;;4992386;28;20629;-53
2021/05/10 04:59:24;;;;;;;5.20;3.07;;;20.50;50.60;;;;;;4991095;28;20668;-53
2021/05/10 05:01:52;;;;;;;4.03;3.53;;;20.60;50.60;;;;;;4990712;28;20739;-52
2021/05/10 05:04:19;;;;;;;6.23;2.97;;;20.70;50.70;;;;;;5004471;28;20678;-53
2021/05/10 05:06:45;;;;;;;3.67;3.37;;;20.80;51.30;;;;;;4992268;28;20629;-53
2021/05/10 05:09:12;;;;;;;3.40;3.10;;;20.70;50.80;;;;;;4991899;28;20624;-53
2021/05/10 05:11:39;;;;;;;4.23;3.03;;;20.70;50.70;;;;;;4992042;28;20727;-53
2021/05/10 05:14:06;;;;;;;4.93;3.03;;;20.80;50.70;;;;;;4991304;28;21105;-53
2021/05/10 05:16:32;;;;;;;5.13;3.63;;;20.80;50.70;;;;;;4996779;28;20641;-53
2021/05/10 05:19:00;;;;;;;4.33;3.17;;;20.80;50.60;;;;;;4997650;28;20643;-53
2021/05/10 05:21:27;;;;;;;4.03;3.73;;;20.80;50.20;;;;;;5000817;28;21228;-53
2021/05/10 05:23:54;;;;;;;4.03;3.70;;;20.80;50.30;;;;;;5001738;28;21192;-52
2021/05/10 05:26:20;;;;;;;3.80;3.37;;;20.90;50.60;;;;;;4995520;28;20633;-52
2021/05/10 05:28:47;;;;;;;5.03;3.50;;;20.90;50.60;;;;;;4993233;28;20613;-52
2021/05/10 05:31:17;;;;;;;3.00;2.80;;;21.00;50.50;;;;;;4993881;28;20703;-52
2021/05/10 05:33:44;;;;;;;3.20;2.27;;;21.00;50.50;;;;;;4991890;28;20963;-52
2021/05/10 05:36:12;;;;;;;5.10;3.30;;;21.00;50.40;;;;;;4992339;28;20636;-52
2021/05/10 05:38:40;;;;;;;4.10;3.03;;;20.90;50.60;;;;;;4991375;28;20691;-53
2021/05/10 05:41:10;;;;;;;2.87;2.67;;;20.90;50.80;;;;;;4992368;28;21024;-54
2021/05/10 05:43:37;;;;;;;3.80;2.77;;;20.90;50.80;;;;;;4993793;28;20699;-50
2021/05/10 05:46:11;;;;;;;3.57;3.23;;;20.90;50.80;;;;;;4990534;28;20707;-51
2021/05/10 05:48:37;;;;;;;3.33;3.03;;;20.90;50.70;;;;;;4991139;28;20691;-52
2021/05/10 05:51:05;;;;;;;5.97;3.00;;;20.90;50.70;;;;;;4990668;28;20628;-52
2021/05/10 05:53:32;;;;;;;4.50;3.77;;;20.90;50.90;;;;;;4990763;28;20968;-52
2021/05/10 05:56:00;;;;;;;2.57;2.37;;;20.90;50.70;;;;;;5000956;28;20919;-51
2021/05/10 05:58:27;;;;;;;3.23;2.90;;;21.00;50.60;;;;;;4990065;28;21189;-53
2021/05/10 06:00:54;;;;;;;2.63;2.40;;;21.00;50.50;;;;;;5001282;28;20754;-51
2021/05/10 06:03:20;;;;;;;3.13;2.93;;;21.00;50.40;;;;;;5005904;28;20653;-51
2021/05/10 06:05:47;;;;;;;3.03;2.83;;;21.00;50.60;;;;;;5000303;28;20666;-51
2021/05/10 06:08:14;;;;;;;2.90;2.60;;;21.10;50.50;;;;;;5000670;28;20636;-52
2021/05/10 06:10:42;;;;;;;3.13;2.83;;;21.20;50.40;;;;;;4994741;28;21236;-52
2021/05/10 06:13:10;;;;;;;7.93;3.30;;;21.20;50.20;;;;;;4994812;28;20738;-53
2021/05/10 06:15:36;;;;;;;3.90;3.40;;;21.30;50.20;;;;;;4996676;28;20707;-53
2021/05/10 06:18:03;;;;;;;3.00;2.20;;;21.40;49.80;;;;;;4994473;28;20657;-52
2021/05/10 06:20:30;;;;;;;5.63;2.83;;;21.50;49.70;;;;;;4994442;28;20645;-52
2021/05/10 06:22:57;;;;;;;3.00;2.70;;;21.60;49.70;;;;;;4991623;28;20664;-52
2021/05/10 06:25:23;;;;;;;5.90;3.23;;;21.60;49.60;;;;;;4993628;28;20735;-52
2021/05/10 06:27:52;;;;;;;4.47;2.17;;;21.70;49.50;;;;;;4993105;28;20679;-52
2021/05/10 06:30:19;;;;;;;2.90;2.70;;;21.70;49.50;;;;;;4994220;28;20628;-52
2021/05/10 06:32:49;;;;;;;2.60;2.40;;;21.80;49.90;;;;;;4993154;28;20672;-51
2021/05/10 06:35:16;;;;;;;3.07;2.10;;;21.90;49.50;;;;;;4994449;28;20729;-51
2021/05/10 06:37:43;;;;;;;3.37;2.60;;;22.00;49.50;;;;;;4993557;28;20633;-52
2021/05/10 06:40:10;;;;;;;3.10;2.17;;;22.00;49.40;;;;;;4993199;28;20659;-51
2021/05/10 06:42:37;;;;;;;2.53;2.27;;;22.10;49.30;;;;;;4994514;28;20695;-51
2021/05/10 06:45:07;;;;;;;2.53;2.30;;;22.10;49.10;;;;;;4994054;28;20802;-51
2021/05/10 06:47:34;;;;;;;2.07;1.97;;;22.10;49.20;;;;;;4992206;28;20636;-52
2021/05/10 06:50:00;;;;;;;3.10;2.03;;;22.20;49.40;;;;;;4994030;28;21271;-51
2021/05/10 06:52:27;;;;;;;2.23;2.03;;;22.20;49.30;;;;;;4993748;28;20676;-51
2021/05/10 06:54:54;;;;;;;2.57;1.90;;;22.20;49.20;;;;;;4994301;28;20642;-52
2021/05/10 06:57:21;;;;;;;4.03;2.03;;;22.20;49.40;;;;;;4994163;28;20636;-52
2021/05/10 06:59:48;;;;;;;3.37;2.40;;;22.20;49.70;;;;;;4995241;28;20632;-53
2021/05/10 07:02:16;;;;;;;3.07;2.27;;;22.20;49.70;;;;;;4993601;28;20661;-52
2021/05/10 07:04:43;;;;;;;5.13;2.53;;;22.20;49.70;;;;;;4988826;28;20740;-51
2021/05/10 07:07:09;;;;;;;5.33;2.30;;;22.20;50.30;;;;;;4985490;28;20624;-52
2021/05/10 07:09:36;;;;;;;3.53;2.47;;;22.20;49.90;;;;;;4993598;28;20628;-50
2021/05/10 07:12:04;;;;;;;3.87;2.03;;;22.20;49.70;;;;;;4993789;28;20680;-50
2021/05/10 07:14:31;;;;;;;3.13;2.37;;;22.20;49.80;;;;;;4996536;28;20995;-52
2021/05/10 07:16:58;;;;;;;2.93;2.40;;;22.20;49.80;;;;;;5012735;28;20628;-53
2021/05/10 07:19:26;;;;;;;4.10;2.50;;;22.20;49.60;;;;;;4993286;28;21181;-52
2021/05/10 07:21:53;;;;;;;4.67;2.50;;;22.20;49.90;;;;;;4997838;28;20721;-53
2021/05/10 07:24:20;;;;;;;4.03;2.87;;;22.20;49.80;;;;;;4992732;28;20743;-52
2021/05/10 07:26:46;;;;;;;5.10;2.80;;;22.20;50.00;;;;;;4993367;28;20633;-52
2021/05/10 07:29:13;;;;;;;3.90;1.80;;;22.20;50.00;;;;;;4993052;28;20703;-51
2021/05/10 07:31:40;;;;;;;2.90;2.63;;;22.20;49.60;;;;;;5009630;23;20657;-57
2021/05/10 07:34:07;;;;;;;5.33;2.40;;;22.20;49.60;;;;;;5024918;28;20648;-58
2021/05/10 07:36:35;;;;;;;3.43;2.33;;;22.20;49.50;;;;;;5043919;28;20623;-57
2021/05/10 07:39:02;;;;;;;2.57;2.23;;;22.20;49.50;;;;;;5031820;28;21091;-57
2021/05/10 07:41:28;;;;;;;6.57;2.50;;;22.30;49.50;;;;;;5044134;28;20744;-57
2021/05/10 07:43:55;;;;;;;4.90;2.67;;;22.40;49.30;;;;;;5052532;28;20630;-56
2021/05/10 07:46:22;;;;;;;3.60;2.20;;;22.50;49.40;;;;;;5043707;28;20623;-57
2021/05/10 07:48:49;;;;;;;2.97;2.20;;;22.70;49.70;;;;;;5042898;28;20669;-59
2021/05/10 07:51:16;;;;;;;4.97;1.80;;;22.80;49.00;;;;;;5035624;28;20695;-59
2021/05/10 07:53:44;;;;;;;5.60;4.23;;;22.90;48.80;;;;;;5052180;28;20688;-56
2021/05/10 07:56:12;;;;;;;3.07;2.00;;;22.80;48.60;;;;;;5052090;28;20630;-57
2021/05/10 07:58:42;;;;;;;4.70;1.70;;;22.70;48.60;;;;;;5035336;28;20631;-59
2021/05/10 08:01:09;;;;;;;6.93;2.47;;;22.50;48.90;;;;;;5031944;28;20704;-57
2021/05/10 08:03:36;;;;;;;4.63;2.30;;;22.40;48.90;;;;;;5036432;28;21002;-57
2021/05/10 08:06:03;;;;;;;1.67;1.57;;;22.20;49.20;;;;;;5052305;28;20626;-59
2021/05/10 08:08:30;;;;;;;2.50;1.83;;;22.10;49.30;;;;;;5052020;28;21191;-58
2021/05/10 08:10:58;;;;;;;6.30;2.40;;;22.00;49.80;;;;;;5052069;28;20626;-58
2021/05/10 08:13:25;;;;;;;2.40;1.27;;;21.90;49.60;;;;;;5052225;28;20719;-59
2021/05/10 08:15:52;;;;;;;3.53;1.33;;;22.00;49.60;;;;;;5052371;28;20622;-60
2021/05/10 08:18:19;;;;;;;6.10;1.90;;;22.00;49.30;;;;;;5050066;28;20622;-57
2021/05/10 08:20:46;;;;;;;3.53;2.00;;;22.00;49.10;;;;;;5051431;28;20662;-60
2021/05/10 08:23:13;;;;;;;4.20;1.30;;;22.10;49.20;;;;;;5041759;28;20713;-59
2021/05/10 08:25:41;;;;;;;1.73;1.53;;;22.10;49.20;;;;;;5031539;28;21191;-60
2021/05/10 08:28:09;;;;;;;4.40;1.70;;;22.00;49.20;;;;;;5031284;28;20630;-58
2021/05/10 08:30:36;;;;;;;3.07;1.90;;;22.00;49.70;;;;;;5032004;28;20626;-60
2021/05/10 08:33:03;;;;;;;3.10;1.40;;;22.10;50.10;;;;;;5029248;28;20655;-60
2021/05/10 08:35:30;;;;;;;3.30;2.10;;;22.10;50.00;;;;;;5031301;28;20689;-60
2021/05/10 08:37:57;;;;;;;4.50;1.50;;;22.20;49.60;;;;;;5035859;28;20624;-59
2021/05/10 08:40:23;;;;;;;2.27;1.77;;;22.30;49.50;;;;;;5038812;28;20685;-58
2021/05/10 08:42:50;;;;;;;4.40;1.77;;;22.40;49.00;;;;;;5031224;28;21321;-61
2021/05/10 08:45:21;;;;;;;2.70;1.97;;;22.60;48.90;;;;;;5051077;28;20622;-59
2021/05/10 08:47:48;;;;;;;6.60;3.77;;;22.60;48.50;;;;;;5051341;28;20626;-60
2021/05/10 08:50:15;;;;;;;2.03;1.10;;;22.70;48.70;;;;;;5051334;28;20672;-60
2021/05/10 08:52:42;;;;;;;1.40;1.03;;;22.90;47.80;;;;;;5051098;28;20711;-57
2021/05/10 08:55:12;;;;;;;1.90;1.00;;;23.00;46.50;;;;;;5034276;28;20705;-57
2021/05/10 08:57:39;;;;;;;1.60;0.90;;;23.10;46.00;;;;;;5035701;28;20635;-59
2021/05/10 09:00:07;;;;;;;1.30;1.00;;;23.00;45.60;;;;;;5030359;28;20631;-57
2021/05/10 09:02:35;;;;;;;2.30;1.07;;;22.90;46.00;;;;;;5027744;28;20736;-57
2021/05/10 09:05:12;;;;;;;1.20;0.97;;;23.00;46.40;;;;;;5030822;28;21204;-57
2021/05/10 09:07:39;;;;;;;1.57;1.10;;;23.00;46.40;;;;;;5036991;28;21182;-57
2021/05/10 09:10:06;;;;;;;1.07;0.97;;;23.10;45.40;;;;;;5033415;28;20643;-57
2021/05/10 09:12:40;;;;;;;4.70;4.13;;;23.00;45.30;;;;;;5046722;28;20645;-59
2021/05/10 09:15:19;;;;;;;4.30;1.40;;;22.90;45.60;;;;;;5045227;28;21100;-57
2021/05/10 09:17:48;;;;;;;0.90;0.60;;;22.80;45.50;;;;;;5030902;28;20758;-56
2021/05/10 09:20:16;;;;;;;1.63;0.93;;;22.80;45.50;;;;;;5030826;28;20665;-58
2021/05/10 09:22:50;;;;;;;2.90;0.67;;;22.80;45.50;;;;;;5030773;28;21099;-58
2021/05/10 09:25:17;;;;;;;0.90;0.80;;;22.80;45.30;;;;;;5028980;28;20623;-58
2021/05/10 09:27:44;;;;;;;0.77;0.77;;;22.80;45.20;;;;;;5030332;28;20642;-58
2021/05/10 09:30:18;;;;;;;1.60;0.93;;;22.80;44.90;;;;;;5029671;28;20653;-59
2021/05/10 09:32:50;;;;;;;2.57;0.97;;;22.50;45.00;;;;;;5037164;28;21074;-58
2021/05/10 09:35:25;;;;;;;1.53;0.80;;;22.40;45.00;;;;;;5032614;28;20642;-56
2021/05/10 09:37:56;;;;;;;1.00;0.77;;;22.20;45.60;;;;;;5034726;28;21057;-58
2021/05/10 09:40:23;;;;;;;2.20;1.10;;;22.10;45.50;;;;;;5034698;28;20988;-58
2021/05/10 09:42:51;;;;;;;2.40;0.70;;;22.20;45.70;;;;;;5033779;28;20752;-57
2021/05/10 09:45:35;;;;;;;0.70;0.60;;;22.10;45.70;;;;;;5034482;28;20975;-59
2021/05/10 09:48:11;;;;;;;1.60;0.90;;;22.10;46.00;;;;;;5032882;28;20638;-59
2021/05/10 09:50:39;;;;;;;1.10;1.00;;;22.10;46.20;;;;;;5034113;28;20708;-58
2021/05/10 09:53:07;;;;;;;1.30;1.20;;;22.00;46.50;;;;;;5044343;28;20634;-57
2021/05/10 09:55:51;;;;;;;2.33;0.90;;;22.00;46.90;;;;;;5053282;28;21206;-58
2021/05/10 09:58:21;;;;;;;1.07;0.70;;;22.00;46.80;;;;;;5046551;28;20665;-56
2021/05/10 10:00:53;;;;;;;5.03;0.83;;;21.90;47.00;;;;;;5036641;28;20646;-57
2021/05/10 10:03:26;;;;;;;2.27;0.57;;;21.60;47.40;;;;;;5034712;28;20650;-57
2021/05/10 10:05:55;;;;;;;3.70;1.37;;;21.40;47.90;;;;;;5034461;28;20627;-59
2021/05/10 10:08:22;;;;;;;1.20;0.67;;;21.30;47.80;;;;;;5033494;28;20630;-58
2021/05/10 10:10:49;;;;;;;0.70;0.50;;;21.20;47.70;;;;;;5032814;28;20615;-59
2021/05/10 10:13:17;;;;;;;1.30;1.00;;;21.30;47.90;;;;;;5034070;28;21078;-58
2021/05/10 10:15:44;;;;;;;1.97;0.70;;;21.40;47.80;;;;;;5034130;28;20657;-57
2021/05/10 10:18:11;;;;;;;1.73;0.73;;;21.50;47.60;;;;;;5043680;28;21018;-57
2021/05/10 10:20:40;;;;;;;1.33;0.70;;;21.60;47.70;;;;;;5039348;28;20622;-57
2021/05/10 10:23:07;;;;;;;0.80;0.73;;;21.70;47.50;;;;;;5044285;28;20678;-56
2021/05/10 10:25:35;;;;;;;1.47;0.60;;;21.80;47.40;;;;;;5035278;28;20622;-57
2021/05/10 10:28:02;;;;;;;1.53;1.03;;;22.00;47.60;;;;;;5033484;28;20680;-57
2021/05/10 10:30:31;;;;;;;0.67;0.50;;;22.00;47.50;;;;;;5037848;28;20630;-58
2021/05/10 10:32:59;;;;;;;3.30;0.97;;;21.90;47.60;;;;;;5045734;28;21214;-58
2021/05/10 10:35:26;;;;;;;3.53;1.33;;;21.70;48.00;;;;;;5037943;28;20684;-60
2021/05/10 10:37:54;;;;;;;1.53;0.70;;;21.70;48.40;;;;;;5053555;28;20626;-58
2021/05/10 10:40:21;;;;;;;2.20;1.03;;;21.70;48.20;;;;;;5053711;28;20708;-58
2021/05/10 10:42:48;;;;;;;2.20;1.43;;;21.70;48.00;;;;;;5053419;28;20697;-59
2021/05/10 10:45:21;;;;;;;1.10;1.00;;;21.70;48.20;;;;;;5052354;28;21150;-57
2021/05/10 10:47:53;;;;;;;2.50;1.50;;;21.80;48.20;;;;;;5047592;28;20684;-58
2021/05/10 10:50:20;;;;;;;1.50;0.73;;;21.90;47.70;;;;;;5033520;28;20680;-59
2021/05/10 10:52:48;;;;;;;1.17;0.93;;;21.80;47.60;;;;;;5032391;28;20728;-57
2021/05/10 10:55:22;;;;;;;2.83;0.87;;;21.80;47.70;;;;;;5031816;28;20656;-57
2021/05/10 10:57:48;;;;;;;0.97;0.87;;;21.90;47.40;;;;;;5033153;28;20619;-58
2021/05/10 11:00:17;;;;;;;5.43;1.10;;;21.90;47.50;;;;;;5033012;28;20630;-57
2021/05/10 11:02:45;;;;;;;1.00;0.90;;;22.00;47.80;;;;;;5032647;28;20674;-57
2021/05/10 11:05:14;;;;;;;0.80;0.80;;;22.00;47.80;;;;;;5033742;28;20679;-57
2021/05/10 11:07:56;;;;;;;1.20;0.80;;;22.10;47.80;;;;;;5030003;28;20617;-57
2021/05/10 11:10:48;;;;;;;1.30;1.00;;;22.10;47.20;;;;;;5038033;28;20668;-58
2021/05/10 11:13:36;;;;;;;1.10;0.70;;;22.30;47.60;;;;;;5032863;28;20685;-59
2021/05/10 11:16:03;;;;;;;3.53;1.40;;;22.40;47.30;;;;;;5032412;28;20622;-59
2021/05/10 11:18:52;;;;;;;2.30;0.80;;;22.50;47.20;;;;;;5031946;28;20684;-59
2021/05/10 11:21:39;;;;;;;1.80;1.10;;;22.60;46.90;;;;;;5023939;28;20699;-56
2021/05/10 11:24:09;;;;;;;1.67;0.67;;;22.70;46.10;;;;;;5045743;28;21193;-61
2021/05/10 11:26:38;;;;;;;1.50;0.77;;;22.50;45.90;;;;;;5013048;28;21001;-58
2021/05/10 11:29:05;;;;;;;2.70;0.90;;;22.40;46.40;;;;;;5026724;28;20614;-57
2021/05/10 11:31:35;;;;;;;0.70;0.53;;;22.40;46.30;;;;;;5034145;28;20643;-58
2021/05/10 11:34:04;;;;;;;1.90;0.47;;;22.30;46.50;;;;;;5031362;28;20654;-56
2021/05/10 11:36:32;;;;;;;0.97;0.77;;;22.20;46.70;;;;;;5042396;28;20699;-58
2021/05/10 11:38:59;;;;;;;1.50;0.50;;;22.10;46.80;;;;;;5032841;28;20684;-59
2021/05/10 11:41:29;;;;;;;2.70;1.00;;;22.10;47.30;;;;;;5031691;28;20685;-58
2021/05/10 11:43:58;;;;;;;0.73;0.53;;;22.10;47.60;;;;;;5032007;28;20708;-56
2021/05/10 11:46:35;;;;;;;2.10;1.00;;;22.00;47.90;;;;;;5032803;28;20618;-58
2021/05/10 11:49:02;;;;;;;1.23;1.13;;;22.00;48.30;;;;;;5032047;28;20665;-57
2021/05/10 11:51:30;;;;;;;1.23;1.00;;;22.00;48.50;;;;;;5031941;28;20712;-57
2021/05/10 11:54:02;;;;;;;1.97;1.00;;;22.00;48.40;;;;;;5031999;28;21190;-57
2021/05/10 11:56:29;;;;;;;1.40;1.10;;;22.00;48.50;;;;;;5032070;28;20631;-56
2021/05/10 11:59:01;;;;;;;1.43;1.10;;;22.00;48.00;;;;;;5033611;28;20627;-56
2021/05/10 12:01:34;;;;;;;2.07;0.67;;;22.00;48.40;;;;;;5032932;28;20730;-57
2021/05/10 12:04:19;;;;;;;0.50;0.50;;;22.00;48.40;;;;;;5034691;28;20619;-57
2021/05/10 12:06:46;;;;;;;5.00;0.77;;;21.90;48.00;;;;;;5032617;28;20631;-56
2021/05/10 12:09:37;;;;;;;0.80;0.50;;;21.80;48.30;;;;;;5032899;28;20614;-56
2021/05/10 12:12:05;;;;;;;2.13;0.77;;;21.70;48.00;;;;;;5025109;28;20689;-57
2021/05/10 12:14:33;;;;;;;1.63;0.77;;;21.60;48.10;;;;;;5021529;28;21155;-58
2021/05/10 12:17:01;;;;;;;1.07;0.60;;;21.60;48.10;;;;;;5020251;28;20620;-56
2021/05/10 12:19:49;;;;;;;1.73;0.90;;;21.50;47.90;;;;;;5024151;28;20626;-57
2021/05/10 12:22:16;;;;;;;1.33;0.50;;;21.40;48.30;;;;;;5022939;28;20667;-56
2021/05/10 12:25:03;;;;;;;5.43;0.70;;;21.40;48.50;;;;;;5029872;28;20685;-58
2021/05/10 12:27:32;;;;;;;2.30;0.80;;;21.30;48.90;;;;;;5031623;28;20623;-57
2021/05/10 12:30:00;;;;;;;1.30;1.00;;;21.30;49.30;;;;;;5031009;28;21175;-58
2021/05/10 12:32:27;;;;;;;1.10;0.90;;;21.30;49.90;;;;;;5031279;28;21207;-57
2021/05/10 12:34:53;;;;;;;1.43;0.87;;;21.30;50.90;;;;;;5031122;28;20615;-57
2021/05/10 12:37:20;;;;;;;0.93;0.90;;;21.20;52.20;;;;;;5030857;28;20623;-57
2021/05/10 12:39:47;;;;;;;1.33;0.90;;;21.20;53.50;;;;;;5030989;28;20682;-58
2021/05/10 12:42:18;;;;;;;2.40;1.00;;;21.10;54.30;;;;;;5031728;28;20671;-57
2021/05/10 12:44:57;;;;;;;1.97;1.33;;;21.00;55.20;;;;;;5031492;28;20619;-58
2021/05/10 12:47:42;;;;;;;2.87;1.00;;;20.80;55.50;;;;;;5031350;28;20639;-57
2021/05/10 12:50:09;;;;;;;0.97;0.87;;;20.70;57.10;;;;;;5031218;28;20673;-57
2021/05/10 12:52:49;;;;;;;2.60;0.97;;;20.70;57.10;;;;;;5025575;28;20701;-57
2021/05/10 12:55:18;;;;;;;2.13;1.10;;;20.60;57.80;;;;;;5019435;28;20631;-56
2021/05/10 12:57:45;;;;;;;1.43;0.80;;;20.60;58.40;;;;;;5031326;28;20634;-59
2021/05/10 13:00:26;;;;;;;3.33;0.67;;;20.30;58.20;;;;;;5043403;28;20622;-57